Rivolto Air Base

LIPI · Friuli Venezia Giulia, 意大利

使用的METAR站距离机场71 km。
罗盘
风向 的 Rivolto Air Base 6/24
风: 3 kt, 1 beaufort

2 kt

3 kt
改变
0 ft 2.000 4.000 6.000 8.000 10.000
Cloud Cloud
FEW 2.000
Cloud Cloud Cloud Cloud Cloud Cloud
BKN 6.000
METAR LOWK 021250Z AUTO VRB03KT 9999 FEW020 BKN060 12/05 Q1009 NOSIG

METAR Rivolto Air Base - LIPI

Rivolto Air Base是,意大利中的中型机场。 该机场位于纬度45,97940和经度13,04920。 该机场有一条跑道: 6/24. 本场的ICAO机场代码为LIPI。 机场在Wien FIR中。

该航空气象观测是针对Klagenfurt Airport在2024年3月2日 13:50, 当地时间进行的。

机场观察

可变方向的风很小或没有风。

可见度为10 km 或者更多。

有几云在2.000 ft的高度 和 碎云在6.000 ft的高度。 破损或更高的上限为6.000 ft。

温度和风寒是12 °C。 露点为5 °C,相对湿度为63%。 海平面上的气压为1009 hPa (QNH)。

白天

今天,太阳从06:43升起,在17:55降落。 这适用于Rivolto Air Base,世界夏令时可能有所不同。 当地时间与世界标准时间之间的时差为+1 小时。 当前,没有夏令时有效。

公司介绍

我们没有关于这个机场的公司信息。

体会

到Vliegles.nl去找飞行课程,跳伞和其他飞行体验。 浏览页面,了解Rivolto Air Base附近所有可用的活动。 你也可以使用搜索功能来寻找你所在地附近的特定飞行课程、跳伞或其他飞行体验。

跑道

Id 标题 侧风 逆风 侧风 %
6/24 060°-240° 3 kt 2 kt 87 %

逆风成分最大的方向会被突出显示,并用于横风计算。 这并不一定意味着这个方向在使用。

乌云

2.000 ft FEW 几云
6.000 ft BKN 碎云

温度 & 天气

温度 12 °C
露点 5 °C
相对湿度 63%
Kp-index 0 (0-9)

白天

日出
06:39
中午
12:14
日落
17:50 (3:38)

小工具

你想在你的网站上有一个关于Rivolto Air Base的当前航空天气(METAR)的小部件吗?

显示HTML代码
?>